Time;durP1;ratioP1;P1;durP2;ratioP2;P2;SDS_P1;SDS_P2;PMS_P1;PMS_P2;Temp;Humidity;BMP_temperature;BMP_pressure;BME280_temperature;BME280_humidity;BME280_pressure;Samples;Min_cycle;Max_cycle;Signal;HPM_P1;HPM_P2
2023/06/13 00:00:57;;;;;;;6.85;4.22;;;;;;;;;;5123750;27;20126;-67
2023/06/13 00:03:23;;;;;;;6.75;3.72;;;;;;;;;;5118916;27;20179;-67
2023/06/13 00:05:51;;;;;;;17.85;4.22;;;;;;;;;;5109707;27;20055;-67
2023/06/13 00:08:21;;;;;;;5.00;3.17;;;;;;;;;;5115739;27;20062;-67
2023/06/13 00:10:49;;;;;;;10.25;4.20;;;;;;;;;;5118120;27;20063;-67
2023/06/13 00:13:16;;;;;;;10.32;3.33;;;;;;;;;;5117848;27;20122;-67
2023/06/13 00:15:49;;;;;;;9.20;4.07;;;;;;;;;;5101981;27;20043;-67
2023/06/13 00:18:17;;;;;;;8.85;4.05;;;;;;;;;;5128023;27;20053;-67
2023/06/13 00:20:44;;;;;;;8.90;4.15;;;;;;;;;;5119278;27;20511;-67
2023/06/13 00:23:10;;;;;;;7.78;3.88;;;;;;;;;;5101449;28;20083;-67
2023/06/13 00:25:36;;;;;;;5.68;3.80;;;;;;;;;;5119424;27;20075;-67
2023/06/13 00:28:02;;;;;;;10.68;4.15;;;;;;;;;;5119306;27;20039;-67
2023/06/13 00:30:28;;;;;;;6.97;3.97;;;;;;;;;;5122717;27;20629;-67
2023/06/13 00:32:54;;;;;;;12.15;4.47;;;;;;;;;;5103551;28;20356;-67
2023/06/13 00:35:21;;;;;;;7.32;3.67;;;;;;;;;;5118014;27;20066;-67
2023/06/13 00:37:50;;;;;;;12.88;4.65;;;;;;;;;;5097984;27;20058;-67
2023/06/13 00:40:18;;;;;;;6.10;3.90;;;;;;;;;;5099681;28;20054;-67
2023/06/13 00:42:44;;;;;;;6.38;3.70;;;;;;;;;;5120268;28;20042;-67
2023/06/13 00:45:24;;;;;;;6.00;3.63;;;;;;;;;;5125293;28;20038;-67
2023/06/13 00:47:52;;;;;;;7.63;4.18;;;;;;;;;;5115585;28;20079;-67
2023/06/13 00:50:31;;;;;;;8.90;4.00;;;;;;;;;;5129788;28;20422;-67
2023/06/13 00:53:01;;;;;;;5.97;3.78;;;;;;;;;;5111962;28;20265;-67
2023/06/13 00:55:27;;;;;;;7.10;4.70;;;;;;;;;;5111535;28;20095;-67
2023/06/13 00:57:55;;;;;;;9.38;4.15;;;;;;;;;;5108382;28;20051;-67
2023/06/13 01:00:25;;;;;;;7.40;3.95;;;;;;;;;;5123691;28;20483;-67
2023/06/13 01:02:55;;;;;;;7.22;4.18;;;;;;;;;;5101677;28;20047;-67
2023/06/13 01:05:25;;;;;;;8.00;4.45;;;;;;;;;;5111637;28;20059;-67
2023/06/13 01:07:52;;;;;;;7.82;4.30;;;;;;;;;;5122861;28;20083;-67
2023/06/13 01:10:19;;;;;;;7.97;4.32;;;;;;;;;;5142432;27;20047;-67
2023/06/13 01:12:51;;;;;;;7.95;3.83;;;;;;;;;;5112904;28;20123;-67
2023/06/13 01:15:19;;;;;;;6.80;3.87;;;;;;;;;;5111686;28;20043;-67
2023/06/13 01:17:57;;;;;;;7.28;4.05;;;;;;;;;;5127034;28;20046;-67
2023/06/13 01:20:28;;;;;;;7.60;4.18;;;;;;;;;;5130576;28;20380;-67
2023/06/13 01:23:03;;;;;;;6.47;3.70;;;;;;;;;;5126921;27;20122;-67
2023/06/13 01:25:45;;;;;;;8.88;3.67;;;;;;;;;;5136313;27;20050;-67
2023/06/13 01:28:13;;;;;;;7.35;3.63;;;;;;;;;;5100516;28;20152;-67
2023/06/13 01:30:41;;;;;;;8.27;3.47;;;;;;;;;;5123568;27;20108;-67
2023/06/13 01:33:08;;;;;;;7.32;3.47;;;;;;;;;;5129464;27;20047;-67
2023/06/13 01:35:34;;;;;;;6.80;3.72;;;;;;;;;;5121082;28;20124;-67
2023/06/13 01:38:00;;;;;;;8.20;3.92;;;;;;;;;;5131511;27;20503;-67
2023/06/13 01:40:27;;;;;;;7.30;4.03;;;;;;;;;;5136577;27;20119;-67
2023/06/13 01:42:53;;;;;;;15.13;4.18;;;;;;;;;;5113141;27;20075;-67
2023/06/13 01:45:19;;;;;;;7.43;3.30;;;;;;;;;;5103767;27;20482;-67
2023/06/13 01:47:55;;;;;;;7.38;3.72;;;;;;;;;;5128623;27;20054;-66
2023/06/13 01:50:26;;;;;;;10.00;4.00;;;;;;;;;;5108970;27;20435;-67
2023/06/13 01:53:02;;;;;;;10.23;3.88;;;;;;;;;;5122462;27;20389;-67
2023/06/13 01:55:37;;;;;;;5.47;3.40;;;;;;;;;;5093236;27;20146;-67
2023/06/13 01:58:05;;;;;;;8.55;4.05;;;;;;;;;;5107077;27;20122;-67
2023/06/13 02:00:32;;;;;;;5.75;2.90;;;;;;;;;;5110145;27;20573;-66
2023/06/13 02:02:59;;;;;;;6.38;3.30;;;;;;;;;;5134326;27;20043;-67
2023/06/13 02:05:26;;;;;;;7.63;3.33;;;;;;;;;;5115982;27;20423;-67
2023/06/13 02:07:53;;;;;;;8.63;3.67;;;;;;;;;;5135188;27;20054;-67
2023/06/13 02:10:19;;;;;;;9.82;3.38;;;;;;;;;;5131860;27;20056;-67
2023/06/13 02:12:46;;;;;;;12.55;4.07;;;;;;;;;;5134664;27;20039;-67
2023/06/13 02:15:12;;;;;;;9.18;4.00;;;;;;;;;;5115553;27;20043;-68
2023/06/13 02:17:39;;;;;;;5.63;3.10;;;;;;;;;;5101556;27;20058;-67
2023/06/13 02:20:06;;;;;;;6.72;3.20;;;;;;;;;;5116001;27;20142;-67
2023/06/13 02:22:33;;;;;;;7.70;3.80;;;;;;;;;;5115421;27;20055;-66
2023/06/13 02:24:59;;;;;;;5.20;3.35;;;;;;;;;;5109174;27;20047;-67
2023/06/13 02:27:26;;;;;;;7.30;3.50;;;;;;;;;;5132824;27;20050;-67
2023/06/13 02:29:53;;;;;;;18.75;4.32;;;;;;;;;;5132694;27;20053;-67
2023/06/13 02:32:21;;;;;;;6.82;4.00;;;;;;;;;;5105555;27;20094;-67
2023/06/13 02:34:47;;;;;;;8.90;3.60;;;;;;;;;;5106081;27;20079;-67
2023/06/13 02:37:13;;;;;;;7.38;4.00;;;;;;;;;;5123744;27;20043;-67
2023/06/13 02:39:39;;;;;;;10.35;3.72;;;;;;;;;;5120878;27;20039;-67
2023/06/13 02:42:06;;;;;;;6.10;3.58;;;;;;;;;;5103904;27;20119;-67
2023/06/13 02:44:32;;;;;;;10.25;3.97;;;;;;;;;;5120947;27;20039;-67
2023/06/13 02:46:58;;;;;;;7.45;3.38;;;;;;;;;;5123277;27;20050;-67
2023/06/13 02:49:25;;;;;;;12.40;3.75;;;;;;;;;;5121511;27;20047;-67
2023/06/13 02:51:52;;;;;;;5.45;3.55;;;;;;;;;;5127628;27;20057;-67
2023/06/13 02:54:18;;;;;;;10.75;4.15;;;;;;;;;;5119631;27;20091;-67
2023/06/13 02:56:45;;;;;;;7.88;3.70;;;;;;;;;;5136568;27;20138;-67
2023/06/13 02:59:11;;;;;;;11.20;3.90;;;;;;;;;;5120764;27;20179;-67
2023/06/13 03:01:37;;;;;;;6.82;3.95;;;;;;;;;;5119171;27;20051;-67
2023/06/13 03:04:03;;;;;;;9.25;3.83;;;;;;;;;;5130840;27;20053;-67
2023/06/13 03:06:30;;;;;;;10.50;4.43;;;;;;;;;;5126855;27;20039;-67
2023/06/13 03:08:58;;;;;;;9.52;3.80;;;;;;;;;;5108861;27;20079;-67
2023/06/13 03:11:25;;;;;;;6.55;3.60;;;;;;;;;;5128793;27;20571;-67
2023/06/13 03:13:51;;;;;;;9.30;3.97;;;;;;;;;;5127472;27;20084;-67
2023/06/13 03:16:21;;;;;;;12.60;4.40;;;;;;;;;;5133362;27;20051;-67
2023/06/13 03:18:48;;;;;;;8.85;4.20;;;;;;;;;;5130849;27;20453;-67
2023/06/13 03:21:15;;;;;;;11.50;4.18;;;;;;;;;;5127974;27;20110;-67
2023/06/13 03:23:41;;;;;;;11.27;3.80;;;;;;;;;;5130362;27;20070;-67
2023/06/13 03:26:09;;;;;;;8.13;3.83;;;;;;;;;;5110598;27;20047;-67
2023/06/13 03:28:36;;;;;;;7.40;4.10;;;;;;;;;;5139600;27;20054;-67
2023/06/13 03:31:02;;;;;;;6.68;3.97;;;;;;;;;;5136357;27;20406;-67
2023/06/13 03:33:29;;;;;;;9.75;4.32;;;;;;;;;;5117325;27;20071;-67
2023/06/13 03:35:55;;;;;;;10.40;4.40;;;;;;;;;;5121799;27;20059;-67
2023/06/13 03:38:21;;;;;;;8.85;4.30;;;;;;;;;;5120037;27;20080;-67
2023/06/13 03:40:47;;;;;;;10.05;4.70;;;;;;;;;;5100577;27;20494;-67
2023/06/13 03:43:14;;;;;;;7.75;4.18;;;;;;;;;;5100542;27;20570;-67
2023/06/13 03:45:40;;;;;;;8.75;4.75;;;;;;;;;;5121087;27;20035;-67
2023/06/13 03:48:06;;;;;;;8.68;4.28;;;;;;;;;;5121575;27;20039;-67
2023/06/13 03:50:32;;;;;;;10.00;3.97;;;;;;;;;;5127836;27;20054;-67
2023/06/13 03:52:58;;;;;;;9.40;4.28;;;;;;;;;;5130919;27;20466;-67
2023/06/13 03:55:24;;;;;;;11.18;4.40;;;;;;;;;;5127927;27;20398;-67
2023/06/13 03:57:50;;;;;;;8.18;4.30;;;;;;;;;;5130967;27;20474;-67
2023/06/13 04:00:17;;;;;;;6.72;3.90;;;;;;;;;;5132279;27;20023;-66
2023/06/13 04:02:45;;;;;;;8.98;4.00;;;;;;;;;;5131329;27;20394;-67
2023/06/13 04:05:12;;;;;;;6.93;4.00;;;;;;;;;;5129392;27;20448;-67
2023/06/13 04:07:38;;;;;;;7.55;3.80;;;;;;;;;;5136167;27;20047;-67
2023/06/13 04:10:05;;;;;;;10.52;4.65;;;;;;;;;;5130222;27;20050;-67
2023/06/13 04:12:31;;;;;;;8.23;3.92;;;;;;;;;;5129864;27;20066;-67
2023/06/13 04:14:58;;;;;;;6.78;3.58;;;;;;;;;;5114000;27;20043;-67
2023/06/13 04:17:24;;;;;;;7.47;3.88;;;;;;;;;;5130727;27;20057;-67
2023/06/13 04:19:50;;;;;;;11.98;4.13;;;;;;;;;;5113066;27;20127;-67
2023/06/13 04:22:17;;;;;;;7.72;3.67;;;;;;;;;;5131519;27;20049;-67
2023/06/13 04:24:43;;;;;;;8.82;4.25;;;;;;;;;;5114338;28;20051;-67
2023/06/13 04:27:13;;;;;;;10.75;3.80;;;;;;;;;;5128545;27;20116;-67
2023/06/13 04:29:42;;;;;;;7.05;3.80;;;;;;;;;;5126988;27;21660;-67
2023/06/13 04:32:13;;;;;;;8.00;3.53;;;;;;;;;;5097951;28;20070;-67
2023/06/13 04:34:52;;;;;;;11.32;3.72;;;;;;;;;;5115491;27;20084;-67
2023/06/13 04:37:23;;;;;;;8.27;3.95;;;;;;;;;;5117505;27;20096;-67
2023/06/13 04:39:53;;;;;;;9.90;3.88;;;;;;;;;;5096776;27;20121;-67
2023/06/13 04:42:29;;;;;;;8.00;4.30;;;;;;;;;;5133534;27;20053;-67
2023/06/13 04:44:58;;;;;;;8.20;4.20;;;;;;;;;;5116531;28;20381;-67
2023/06/13 04:47:25;;;;;;;5.93;3.20;;;;;;;;;;5115517;28;20047;-67
2023/06/13 04:49:51;;;;;;;7.47;3.25;;;;;;;;;;5104779;28;20078;-67
2023/06/13 04:52:18;;;;;;;7.28;3.30;;;;;;;;;;5135115;27;20043;-67
2023/06/13 04:54:47;;;;;;;6.47;3.70;;;;;;;;;;5116049;28;20046;-67
2023/06/13 04:57:17;;;;;;;10.57;4.00;;;;;;;;;;5110148;28;20043;-67
2023/06/13 04:59:43;;;;;;;7.05;4.07;;;;;;;;;;5145746;27;20043;-67
2023/06/13 05:02:09;;;;;;;9.05;3.90;;;;;;;;;;5113303;28;20039;-67
2023/06/13 05:04:37;;;;;;;7.22;3.83;;;;;;;;;;5113235;28;20031;-66
2023/06/13 05:07:05;;;;;;;10.70;4.43;;;;;;;;;;5130852;27;20047;-67
2023/06/13 05:09:31;;;;;;;6.93;3.53;;;;;;;;;;5114938;27;20443;-67
2023/06/13 05:11:57;;;;;;;8.05;3.80;;;;;;;;;;5137589;27;20046;-67
2023/06/13 05:14:23;;;;;;;10.52;3.97;;;;;;;;;;5117742;27;20051;-67
2023/06/13 05:16:50;;;;;;;6.88;3.45;;;;;;;;;;5134895;27;20050;-68
2023/06/13 05:19:17;;;;;;;9.93;4.63;;;;;;;;;;5135522;27;20484;-68
2023/06/13 05:21:43;;;;;;;11.63;4.55;;;;;;;;;;5134076;27;20051;-69
2023/06/13 05:24:10;;;;;;;10.50;4.15;;;;;;;;;;5117427;27;20504;-69
2023/06/13 05:26:37;;;;;;;9.98;4.35;;;;;;;;;;5114996;27;20074;-69
2023/06/13 05:29:06;;;;;;;9.60;3.42;;;;;;;;;;5132715;27;20134;-68
2023/06/13 05:31:33;;;;;;;8.57;3.88;;;;;;;;;;5135473;27;20355;-68
2023/06/13 05:34:01;;;;;;;11.68;5.63;;;;;;;;;;5114770;27;20347;-69
2023/06/13 05:36:27;;;;;;;12.88;3.78;;;;;;;;;;5137380;27;20047;-69
2023/06/13 05:38:57;;;;;;;7.28;3.83;;;;;;;;;;5129743;27;20146;-70
2023/06/13 05:41:23;;;;;;;9.38;4.10;;;;;;;;;;5147219;27;20065;-72
2023/06/13 05:43:51;;;;;;;7.18;3.72;;;;;;;;;;5108355;27;20096;-72
2023/06/13 05:46:17;;;;;;;6.00;3.63;;;;;;;;;;5134277;27;20482;-72
2023/06/13 05:48:43;;;;;;;7.32;3.63;;;;;;;;;;5135770;27;20111;-72
2023/06/13 05:51:09;;;;;;;6.10;3.55;;;;;;;;;;5135083;27;20070;-72
2023/06/13 05:53:35;;;;;;;10.48;4.22;;;;;;;;;;5131651;27;20065;-71
2023/06/13 05:56:01;;;;;;;12.13;3.92;;;;;;;;;;5135764;27;20039;-72
2023/06/13 05:58:28;;;;;;;7.32;3.40;;;;;;;;;;5131678;27;20047;-72
2023/06/13 06:00:57;;;;;;;17.00;3.90;;;;;;;;;;5135775;27;20440;-72
2023/06/13 06:03:23;;;;;;;10.05;3.50;;;;;;;;;;5134601;27;20047;-72
2023/06/13 06:05:49;;;;;;;7.13;3.50;;;;;;;;;;5131078;27;20035;-67
2023/06/13 06:08:15;;;;;;;5.75;3.05;;;;;;;;;;5130976;27;20348;-71
2023/06/13 06:10:41;;;;;;;8.32;3.70;;;;;;;;;;5132212;27;20035;-71
2023/06/13 06:13:08;;;;;;;6.05;3.40;;;;;;;;;;5131639;27;20437;-71
2023/06/13 06:15:37;;;;;;;5.70;3.13;;;;;;;;;;5118472;27;20050;-71
2023/06/13 06:18:03;;;;;;;8.43;3.30;;;;;;;;;;5115321;27;20368;-71
2023/06/13 06:20:29;;;;;;;6.78;3.80;;;;;;;;;;5131960;27;20055;-71
2023/06/13 06:22:55;;;;;;;6.40;2.83;;;;;;;;;;5119559;27;20071;-71
2023/06/13 06:25:22;;;;;;;12.02;5.45;;;;;;;;;;5120429;27;20047;-72
2023/06/13 06:27:48;;;;;;;6.55;3.10;;;;;;;;;;5115242;27;20058;-71
2023/06/13 06:30:14;;;;;;;8.50;3.13;;;;;;;;;;5131771;27;20126;-71
2023/06/13 06:32:42;;;;;;;10.18;3.67;;;;;;;;;;5116832;27;20047;-71
2023/06/13 06:35:08;;;;;;;6.20;3.13;;;;;;;;;;5149678;27;20039;-70
2023/06/13 06:37:35;;;;;;;6.68;3.15;;;;;;;;;;5116107;27;20031;-70
2023/06/13 06:40:01;;;;;;;6.35;2.83;;;;;;;;;;5113290;27;20051;-71
2023/06/13 06:42:27;;;;;;;6.88;3.00;;;;;;;;;;5132272;27;20035;-70
2023/06/13 06:44:53;;;;;;;9.85;2.85;;;;;;;;;;5134551;27;20114;-70
2023/06/13 06:47:19;;;;;;;7.32;2.63;;;;;;;;;;5115008;27;20138;-71
2023/06/13 06:49:46;;;;;;;7.35;2.75;;;;;;;;;;5134272;27;20039;-71
2023/06/13 06:52:12;;;;;;;5.65;2.92;;;;;;;;;;5133657;27;20116;-71
2023/06/13 06:54:38;;;;;;;10.23;3.20;;;;;;;;;;5133085;27;20122;-71
2023/06/13 06:57:05;;;;;;;5.00;2.55;;;;;;;;;;5099425;27;20442;-70
2023/06/13 06:59:31;;;;;;;7.63;2.55;;;;;;;;;;5093457;27;20051;-72
2023/06/13 07:01:57;;;;;;;6.85;2.70;;;;;;;;;;5116570;27;20042;-71
2023/06/13 07:04:24;;;;;;;7.72;2.60;;;;;;;;;;5115597;27;20035;-71
2023/06/13 07:06:50;;;;;;;6.47;2.78;;;;;;;;;;5109170;27;20581;-71
2023/06/13 07:09:16;;;;;;;6.80;2.55;;;;;;;;;;5133481;27;20043;-71
2023/06/13 07:11:43;;;;;;;5.93;3.00;;;;;;;;;;5114492;27;20436;-68
2023/06/13 07:14:09;;;;;;;5.38;2.63;;;;;;;;;;5133761;27;20031;-68
2023/06/13 07:16:36;;;;;;;12.45;2.67;;;;;;;;;;5114672;27;20054;-68
2023/06/13 07:19:02;;;;;;;5.15;2.50;;;;;;;;;;5132813;27;20060;-68
2023/06/13 07:21:28;;;;;;;5.78;2.72;;;;;;;;;;5115483;27;20173;-68
2023/06/13 07:23:54;;;;;;;6.38;2.92;;;;;;;;;;5103173;27;20344;-68
2023/06/13 07:26:21;;;;;;;4.35;2.60;;;;;;;;;;5115600;27;20055;-68
2023/06/13 07:28:47;;;;;;;8.50;2.58;;;;;;;;;;5132749;27;20055;-68
2023/06/13 07:31:14;;;;;;;5.13;2.17;;;;;;;;;;5104953;27;20039;-68
2023/06/13 07:33:40;;;;;;;10.07;2.38;;;;;;;;;;5115409;27;20050;-68
2023/06/13 07:36:06;;;;;;;8.00;2.95;;;;;;;;;;5111829;27;20046;-68
2023/06/13 07:38:33;;;;;;;10.38;2.60;;;;;;;;;;5114751;27;20320;-68
2023/06/13 07:40:59;;;;;;;5.35;2.50;;;;;;;;;;5115006;27;20079;-65
2023/06/13 07:43:25;;;;;;;4.93;2.10;;;;;;;;;;5132773;27;20435;-65
2023/06/13 07:45:51;;;;;;;7.10;2.17;;;;;;;;;;5132173;27;20035;-68
2023/06/13 07:48:17;;;;;;;7.88;2.42;;;;;;;;;;5115384;27;20043;-68
2023/06/13 07:50:44;;;;;;;4.80;2.30;;;;;;;;;;5132800;27;20492;-69
2023/06/13 07:53:10;;;;;;;5.78;3.08;;;;;;;;;;5113668;27;20432;-69
2023/06/13 07:55:37;;;;;;;10.02;2.42;;;;;;;;;;5114579;27;20043;-69
2023/06/13 07:58:03;;;;;;;4.60;2.58;;;;;;;;;;5132213;27;20183;-70
2023/06/13 08:00:30;;;;;;;5.93;2.20;;;;;;;;;;5111162;27;20138;-69
2023/06/13 08:02:57;;;;;;;5.35;2.45;;;;;;;;;;5127459;27;20091;-72
2023/06/13 08:05:24;;;;;;;7.78;2.65;;;;;;;;;;5127566;27;20394;-72
2023/06/13 08:07:50;;;;;;;6.03;2.20;;;;;;;;;;5139280;27;20043;-72
2023/06/13 08:10:17;;;;;;;5.03;1.75;;;;;;;;;;5129190;27;20047;-72
2023/06/13 08:12:43;;;;;;;9.35;2.33;;;;;;;;;;5131524;27;20043;-72
2023/06/13 08:15:09;;;;;;;6.88;2.40;;;;;;;;;;5113611;27;20039;-72
2023/06/13 08:17:41;;;;;;;5.68;2.40;;;;;;;;;;5131584;27;20039;-73
2023/06/13 08:20:08;;;;;;;5.57;2.70;;;;;;;;;;5114138;27;20055;-73
2023/06/13 08:22:37;;;;;;;6.05;2.08;;;;;;;;;;5132610;27;20032;-73
2023/06/13 08:25:03;;;;;;;9.40;2.60;;;;;;;;;;5114664;27;20391;-72
2023/06/13 08:27:29;;;;;;;4.82;2.60;;;;;;;;;;5114134;27;20043;-73
2023/06/13 08:29:56;;;;;;;6.75;2.28;;;;;;;;;;5114093;27;20047;-73
2023/06/13 08:32:24;;;;;;;10.38;3.00;;;;;;;;;;5130960;27;20061;-73
2023/06/13 08:34:51;;;;;;;6.80;2.47;;;;;;;;;;5113408;27;20047;-72
2023/06/13 08:37:17;;;;;;;6.45;2.80;;;;;;;;;;5140464;27;20054;-73
2023/06/13 08:39:44;;;;;;;6.78;2.72;;;;;;;;;;5113210;28;20440;-72
2023/06/13 08:42:10;;;;;;;7.55;3.00;;;;;;;;;;5132651;28;20122;-73
2023/06/13 08:44:36;;;;;;;4.60;2.65;;;;;;;;;;5113823;28;20054;-73
2023/06/13 08:47:03;;;;;;;7.40;2.60;;;;;;;;;;5131304;27;20119;-73
2023/06/13 08:49:29;;;;;;;7.20;2.92;;;;;;;;;;5117930;27;20104;-73
2023/06/13 08:51:57;;;;;;;7.18;3.10;;;;;;;;;;5118593;27;20157;-72
2023/06/13 08:54:25;;;;;;;4.90;2.38;;;;;;;;;;5117041;27;20447;-73
2023/06/13 08:56:52;;;;;;;4.88;2.70;;;;;;;;;;5119477;27;20043;-73
2023/06/13 08:59:20;;;;;;;6.93;2.78;;;;;;;;;;5135153;27;20042;-73
2023/06/13 09:01:48;;;;;;;8.65;3.00;;;;;;;;;;5114312;27;20055;-72
2023/06/13 09:04:16;;;;;;;6.38;2.67;;;;;;;;;;5116444;27;20035;-73
2023/06/13 09:06:43;;;;;;;11.63;2.65;;;;;;;;;;5103353;28;20406;-73
2023/06/13 09:09:10;;;;;;;13.27;2.97;;;;;;;;;;5147042;27;20099;-73
2023/06/13 09:11:37;;;;;;;8.48;2.92;;;;;;;;;;5117277;27;20043;-73
2023/06/13 09:14:07;;;;;;;6.80;2.75;;;;;;;;;;5135788;27;20401;-73
2023/06/13 09:16:33;;;;;;;6.95;3.75;;;;;;;;;;5136149;27;20080;-73
2023/06/13 09:18:59;;;;;;;5.30;2.80;;;;;;;;;;5117189;27;20039;-73
2023/06/13 09:21:26;;;;;;;5.25;2.75;;;;;;;;;;5134887;27;20416;-73
2023/06/13 09:23:59;;;;;;;8.93;3.20;;;;;;;;;;5136029;27;20401;-73
2023/06/13 09:26:26;;;;;;;5.28;2.97;;;;;;;;;;5135917;27;20054;-73
2023/06/13 09:28:52;;;;;;;5.93;3.17;;;;;;;;;;5116437;27;20450;-73
2023/06/13 09:31:18;;;;;;;5.30;2.40;;;;;;;;;;5116882;27;20134;-73
2023/06/13 09:33:45;;;;;;;5.88;2.70;;;;;;;;;;5116872;27;20179;-73
2023/06/13 09:36:11;;;;;;;5.90;2.97;;;;;;;;;;5116650;27;20074;-73
2023/06/13 09:38:40;;;;;;;5.03;2.80;;;;;;;;;;5117738;27;20097;-73
2023/06/13 09:41:07;;;;;;;7.57;3.00;;;;;;;;;;5117931;27;20067;-73
2023/06/13 09:43:33;;;;;;;10.60;2.92;;;;;;;;;;5116941;27;20104;-73
2023/06/13 09:46:01;;;;;;;7.57;3.10;;;;;;;;;;5135764;27;20081;-73
2023/06/13 09:48:28;;;;;;;6.18;2.95;;;;;;;;;;5135418;27;20081;-73
2023/06/13 09:50:54;;;;;;;9.25;2.70;;;;;;;;;;5133732;27;20053;-73
2023/06/13 09:53:21;;;;;;;4.68;2.65;;;;;;;;;;5116978;27;20058;-73
2023/06/13 09:55:48;;;;;;;7.25;2.45;;;;;;;;;;5116747;27;20051;-73
2023/06/13 09:58:15;;;;;;;4.43;2.42;;;;;;;;;;5115988;27;20039;-73
2023/06/13 10:00:41;;;;;;;5.22;2.40;;;;;;;;;;5133393;27;20126;-73
2023/06/13 10:03:08;;;;;;;7.93;2.80;;;;;;;;;;5133896;27;20043;-73
2023/06/13 10:05:34;;;;;;;6.32;2.40;;;;;;;;;;5111447;28;20451;-73
2023/06/13 10:08:01;;;;;;;4.88;2.25;;;;;;;;;;5141737;27;20047;-73
2023/06/13 10:10:27;;;;;;;5.38;2.28;;;;;;;;;;5114703;27;20039;-73
2023/06/13 10:12:59;;;;;;;8.65;2.38;;;;;;;;;;5116759;27;20122;-73
2023/06/13 10:15:34;;;;;;;9.73;2.35;;;;;;;;;;5133597;27;20039;-73
2023/06/13 10:18:03;;;;;;;6.88;2.30;;;;;;;;;;5134011;27;20118;-73
2023/06/13 10:20:29;;;;;;;6.05;2.28;;;;;;;;;;5100722;27;20066;-73
2023/06/13 10:22:57;;;;;;;12.90;2.85;;;;;;;;;;5116506;27;20043;-73
2023/06/13 10:25:26;;;;;;;7.80;2.42;;;;;;;;;;5134002;27;20050;-73
2023/06/13 10:27:54;;;;;;;6.03;2.30;;;;;;;;;;5102461;27;20043;-73
2023/06/13 10:30:52;;;;;;;5.78;2.05;;;;;;;;;;5133733;27;20055;-73
2023/06/13 10:33:42;;;;;;;5.88;2.20;;;;;;;;;;5066697;27;20051;-73
2023/06/13 10:36:16;;;;;;;4.55;2.15;;;;;;;;;;5099114;27;20047;-73
2023/06/13 10:38:54;;;;;;;5.72;1.92;;;;;;;;;;5133892;27;20051;-73
2023/06/13 10:41:26;;;;;;;4.50;1.90;;;;;;;;;;5133304;27;20464;-72
2023/06/13 10:44:08;;;;;;;6.28;2.10;;;;;;;;;;5133497;27;20054;-68
2023/06/13 10:46:35;;;;;;;6.38;2.20;;;;;;;;;;5133222;27;20047;-66
2023/06/13 10:49:01;;;;;;;6.63;1.90;;;;;;;;;;5115221;27;20126;-65
2023/06/13 10:51:30;;;;;;;4.60;1.75;;;;;;;;;;5132167;27;20043;-68
2023/06/13 10:54:02;;;;;;;7.72;1.90;;;;;;;;;;5133340;27;20482;-68
2023/06/13 10:56:29;;;;;;;4.68;1.95;;;;;;;;;;5131574;27;20050;-68
2023/06/13 10:59:02;;;;;;;5.25;1.70;;;;;;;;;;5133645;27;20058;-68
2023/06/13 11:01:29;;;;;;;6.63;2.35;;;;;;;;;;5133683;27;20059;-68
2023/06/13 11:04:08;;;;;;;3.78;2.10;;;;;;;;;;5115712;27;20043;-68
2023/06/13 11:06:34;;;;;;;5.57;1.70;;;;;;;;;;5118892;27;20556;-68
2023/06/13 11:09:09;;;;;;;5.72;1.90;;;;;;;;;;5132759;27;20057;-68
2023/06/13 11:11:47;;;;;;;7.15;2.10;;;;;;;;;;5133911;27;20096;-68
2023/06/13 11:14:14;;;;;;;4.25;2.05;;;;;;;;;;5132888;27;20039;-68
2023/06/13 11:16:43;;;;;;;6.28;1.83;;;;;;;;;;5112841;27;20075;-69
2023/06/13 11:19:21;;;;;;;9.23;2.05;;;;;;;;;;5133805;27;20543;-68
2023/06/13 11:21:50;;;;;;;3.72;1.58;;;;;;;;;;5132756;27;20400;-68
2023/06/13 11:24:16;;;;;;;5.80;1.85;;;;;;;;;;5114770;27;20039;-68
2023/06/13 11:26:43;;;;;;;8.23;2.38;;;;;;;;;;5133623;27;20047;-68
2023/06/13 11:29:10;;;;;;;5.93;1.92;;;;;;;;;;5131950;27;20099;-70
2023/06/13 11:31:38;;;;;;;5.93;1.70;;;;;;;;;;5133635;27;20103;-74
2023/06/13 11:34:05;;;;;;;4.15;1.38;;;;;;;;;;5133554;27;20043;-72
2023/06/13 11:36:33;;;;;;;5.15;1.55;;;;;;;;;;5112975;27;20051;-71
2023/06/13 11:39:03;;;;;;;5.60;1.50;;;;;;;;;;5132717;27;20068;-72
2023/06/13 11:41:30;;;;;;;7.53;1.58;;;;;;;;;;5108108;27;20375;-71
2023/06/13 11:43:56;;;;;;;4.40;1.60;;;;;;;;;;5115025;27;20138;-71
2023/06/13 11:46:23;;;;;;;8.50;1.90;;;;;;;;;;5132122;27;20047;-71
2023/06/13 11:48:55;;;;;;;3.95;1.33;;;;;;;;;;5112965;27;20050;-72
2023/06/13 11:51:22;;;;;;;4.55;1.80;;;;;;;;;;5132003;27;20491;-71
2023/06/13 11:53:48;;;;;;;4.53;1.48;;;;;;;;;;5114488;27;20368;-74
2023/06/13 11:56:15;;;;;;;5.20;1.50;;;;;;;;;;5112498;27;20046;-73
2023/06/13 11:58:41;;;;;;;6.88;1.70;;;;;;;;;;5133430;27;20061;-71
2023/06/13 12:01:08;;;;;;;5.68;1.20;;;;;;;;;;5132917;27;20042;-72
2023/06/13 12:03:37;;;;;;;5.57;1.77;;;;;;;;;;5130893;27;20127;-72
2023/06/13 12:06:06;;;;;;;6.57;1.70;;;;;;;;;;5111533;27;20035;-71
2023/06/13 12:08:36;;;;;;;4.85;1.20;;;;;;;;;;5114484;27;20187;-72
2023/06/13 12:11:06;;;;;;;8.30;2.22;;;;;;;;;;5113804;27;20081;-74
2023/06/13 12:13:36;;;;;;;6.10;1.40;;;;;;;;;;5096188;27;20079;-71
2023/06/13 12:16:02;;;;;;;4.53;1.50;;;;;;;;;;5114450;27;20038;-74
2023/06/13 12:18:29;;;;;;;4.30;1.52;;;;;;;;;;5130526;27;20051;-74
2023/06/13 12:20:59;;;;;;;7.70;1.80;;;;;;;;;;5132411;27;20043;-74
2023/06/13 12:23:26;;;;;;;4.93;1.50;;;;;;;;;;5132700;27;20402;-74
2023/06/13 12:25:53;;;;;;;1.98;1.00;;;;;;;;;;5133221;27;20115;-74
2023/06/13 12:28:19;;;;;;;5.63;1.95;;;;;;;;;;5114050;28;20122;-74
2023/06/13 12:30:49;;;;;;;6.30;1.40;;;;;;;;;;5111960;27;20413;-74
2023/06/13 12:33:18;;;;;;;5.28;1.55;;;;;;;;;;5114375;28;20058;-74
2023/06/13 12:35:51;;;;;;;3.78;1.40;;;;;;;;;;5132491;28;20047;-74
2023/06/13 12:38:17;;;;;;;;;;;;;;;;;;5113817;28;20047;-74
2023/06/13 12:40:45;;;;;;;5.47;1.77;;;;;;;;;;5146894;27;19919;-74
2023/06/13 12:43:12;;;;;;;5.30;2.15;;;;;;;;;;5118188;27;20113;-74
2023/06/13 12:45:43;;;;;;;5.55;1.60;;;;;;;;;;5113419;28;20047;-74
2023/06/13 12:48:16;;;;;;;8.25;1.95;;;;;;;;;;5132230;28;20439;-74
2023/06/13 12:50:42;;;;;;;5.00;1.50;;;;;;;;;;5113241;28;20047;-74
2023/06/13 12:53:09;;;;;;;6.85;2.08;;;;;;;;;;5113575;28;20470;-74
2023/06/13 12:55:35;;;;;;;3.42;1.50;;;;;;;;;;5132506;28;20035;-74
2023/06/13 12:58:02;;;;;;;6.13;1.60;;;;;;;;;;5132262;28;20074;-74
2023/06/13 13:00:29;;;;;;;5.85;1.48;;;;;;;;;;5094686;28;20039;-74
2023/06/13 13:02:56;;;;;;;5.88;1.75;;;;;;;;;;5128377;27;20036;-69
2023/06/13 13:05:27;;;;;;;6.70;1.52;;;;;;;;;;5123836;27;20502;-74
2023/06/13 13:07:55;;;;;;;6.13;2.03;;;;;;;;;;5133529;27;20094;-74
2023/06/13 13:10:21;;;;;;;7.80;1.67;;;;;;;;;;5120767;27;20522;-74
2023/06/13 13:12:47;;;;;;;5.75;1.88;;;;;;;;;;5131901;28;20085;-74
2023/06/13 13:15:14;;;;;;;7.00;1.60;;;;;;;;;;5112254;28;20439;-74
2023/06/13 13:17:40;;;;;;;8.70;2.10;;;;;;;;;;5132085;28;20074;-74
2023/06/13 13:20:07;;;;;;;5.03;1.42;;;;;;;;;;5130932;27;20371;-74
2023/06/13 13:22:33;;;;;;;4.55;1.67;;;;;;;;;;5132282;28;20035;-74
2023/06/13 13:24:59;;;;;;;5.50;1.73;;;;;;;;;;5113281;27;20070;-74
2023/06/13 13:27:25;;;;;;;4.47;1.55;;;;;;;;;;5131269;28;20499;-74
2023/06/13 13:29:52;;;;;;;7.10;2.00;;;;;;;;;;5113523;28;20134;-74
2023/06/13 13:32:18;;;;;;;7.53;1.80;;;;;;;;;;5129731;27;20047;-74
2023/06/13 13:34:44;;;;;;;7.07;1.80;;;;;;;;;;5112484;27;20039;-74
2023/06/13 13:37:10;;;;;;;8.52;1.85;;;;;;;;;;5135723;27;20513;-73
2023/06/13 13:39:36;;;;;;;5.22;2.45;;;;;;;;;;5117063;27;20046;-73
2023/06/13 13:42:03;;;;;;;9.27;1.83;;;;;;;;;;5127495;27;20035;-70
2023/06/13 13:44:29;;;;;;;6.53;1.73;;;;;;;;;;5114614;27;20126;-73
2023/06/13 13:46:55;;;;;;;7.60;1.75;;;;;;;;;;5139138;27;20069;-73
2023/06/13 13:49:21;;;;;;;5.25;2.00;;;;;;;;;;5133757;27;20502;-72
2023/06/13 13:51:48;;;;;;;4.03;1.80;;;;;;;;;;5135084;27;20046;-71
2023/06/13 13:54:15;;;;;;;8.05;1.70;;;;;;;;;;5134122;27;20483;-72
2023/06/13 13:56:41;;;;;;;5.25;1.85;;;;;;;;;;5115854;27;20099;-72
2023/06/13 13:59:08;;;;;;;3.65;1.38;;;;;;;;;;5135557;27;20058;-72
2023/06/13 14:01:34;;;;;;;5.25;1.75;;;;;;;;;;5107033;27;20039;-71
2023/06/13 14:04:00;;;;;;;8.52;2.25;;;;;;;;;;5130913;27;20376;-71
2023/06/13 14:06:26;;;;;;;5.53;1.85;;;;;;;;;;5130475;27;20109;-71
2023/06/13 14:08:52;;;;;;;4.60;1.63;;;;;;;;;;5129487;27;20035;-72
2023/06/13 14:11:18;;;;;;;6.15;1.88;;;;;;;;;;5137156;27;20432;-72
2023/06/13 14:13:45;;;;;;;7.03;2.53;;;;;;;;;;5116533;27;20482;-72
2023/06/13 14:16:11;;;;;;;5.80;1.63;;;;;;;;;;5134323;27;20127;-72
2023/06/13 14:18:37;;;;;;;6.28;2.53;;;;;;;;;;5116559;27;20047;-71
2023/06/13 14:21:04;;;;;;;4.45;1.98;;;;;;;;;;5135241;27;20075;-72
2023/06/13 14:23:30;;;;;;;5.15;1.40;;;;;;;;;;5132012;27;20390;-72
2023/06/13 14:25:56;;;;;;;4.38;1.80;;;;;;;;;;5134263;27;20118;-71
2023/06/13 14:28:22;;;;;;;3.13;1.42;;;;;;;;;;5134975;27;20058;-72
2023/06/13 14:30:48;;;;;;;6.32;1.70;;;;;;;;;;5133607;27;20494;-71
2023/06/13 14:33:16;;;;;;;3.90;1.77;;;;;;;;;;5135672;27;20114;-72
2023/06/13 14:35:43;;;;;;;5.22;1.80;;;;;;;;;;5133972;27;20058;-72
2023/06/13 14:38:09;;;;;;;7.38;2.00;;;;;;;;;;5132703;27;20081;-72
2023/06/13 14:40:35;;;;;;;6.28;1.77;;;;;;;;;;5098805;27;20092;-73
2023/06/13 14:43:02;;;;;;;5.53;2.20;;;;;;;;;;5134018;27;20035;-74